Friday, April 29, 2016, 9:57 AM EDT

KUNV, State College, University Park Airport

Location: State College, PA, United States Lat: 40.85
Local Time: 9:57 AM EDT (13:57 GMT) Lon: -77.85
Time Zone: US/Eastern Elev: 1240 ft

Show me the last for .
Show Decoded

2016-04-29 09:30 METAR KUNV 291330Z 00000KT 3SM BR OVC009 07/06 A3003 =
2016-04-29 08:53 METAR KUNV 291253Z 00000KT 4SM BR OVC009 06/06 A3003 =
2016-04-29 07:53 METAR KUNV 291153Z 12004KT 3SM BR OVC009 06/06 A3003 =
2016-04-29 06:53 METAR KUNV 291053Z 06006KT 3SM BR SCT003 OVC011 06/05 A3001 =
2016-04-29 05:53 METAR KUNV 290953Z 06005KT 4SM BR SCT003 OVC010 06/05 A3000 =
2016-04-29 05:35 METAR KUNV 290935Z AUTO 05004KT 2 1/2SM BR SCT002 OVC010 06/06 A3000 RMK AO2
                 T00570055 =
2016-04-29 05:15 METAR KUNV 290915Z AUTO 00000KT 3SM BR SCT002 OVC010 06/06 A3000 RMK AO2
                 T00570055 =
2016-04-29 04:55 METAR KUNV 290855Z AUTO 04005KT 3SM BR SCT002 OVC010 06/06 A3000 RMK AO2 60001
                 T00570055 =
2016-04-29 04:35 METAR KUNV 290835Z AUTO 05004KT 3SM BR SCT002 OVC010 06/05 A2999 RMK AO2 P0001
                 T00570054 =
2016-04-29 04:15 METAR KUNV 290815Z AUTO 05003KT 3SM BR SCT004 OVC010 06/05 A2999 RMK AO2 P0001
                 T00570053 =
2016-04-29 03:55 METAR KUNV 290755Z AUTO 04003KT 2 1/2SM -RA SCT002 OVC010 06/05 A2999 RMK AO2
                 P0001 T00570053 =
2016-04-29 03:35 METAR KUNV 290735Z AUTO 00000KT 2 1/2SM -RA SCT004 OVC010 06/05 A2999 RMK AO2
                 T00570053 =
2016-04-29 03:15 METAR KUNV 290715Z AUTO 00000KT 3SM BR SCT002 OVC008 06/05 A2998 RMK AO2
                 T00570053 =
2016-04-29 02:55 METAR KUNV 290655Z AUTO 06003KT 2 1/2SM DZ SCT002 OVC008 06/05 A2998 RMK AO2
                 T00570053 =
2016-04-29 02:35 METAR KUNV 290635Z AUTO 04004KT 4SM BR OVC008 06/05 A2998 RMK AO2 T00570053 =
2016-04-29 02:15 METAR KUNV 290615Z AUTO 04004KT 3SM BR SCT002 OVC008 06/06 A2998 RMK AO2
                 T00580055 =
2016-04-29 01:55 METAR KUNV 290555Z AUTO 02003KT 5SM BR OVC008 06/05 A2999 RMK AO2 T00580053
                 10058 20055 =
2016-04-29 01:35 METAR KUNV 290535Z AUTO 00000KT 4SM BR OVC008 06/05 A3000 RMK AO2 T00570052 =
2016-04-29 01:15 METAR KUNV 290515Z AUTO 05003KT 5SM BR OVC008 06/05 A3000 RMK AO2 T00570052 =
2016-04-29 00:55 METAR KUNV 290455Z AUTO 00000KT 5SM BR SCT002 OVC010 06/05 A3000 RMK AO2
                 T00560052 =
2016-04-29 00:35 METAR KUNV 290435Z AUTO 00000KT 4SM BR SCT002 OVC010 06/05 A3001 RMK AO2
                 T00560052 =
2016-04-29 00:15 METAR KUNV 290415Z AUTO 00000KT 4SM BR SCT002 OVC010 06/05 A3001 RMK AO2
                 T00560052 =
2016-04-28 23:55 METAR KUNV 290355Z AUTO 04003KT 4SM BR SCT004 OVC010 06/05 A3000 RMK AO2
                 T00560052 401070052 =
2016-04-28 23:35 METAR KUNV 290335Z AUTO 06003KT 3SM BR SCT002 BKN010 OVC013 06/05 A3000 RMK AO2
                 P0001 T00560052 =
2016-04-28 23:15 METAR KUNV 290315Z AUTO 07003KT 3SM -RA OVC010 06/05 A3000 RMK AO2 P0001
                 T00560052 =
2016-04-28 22:55 METAR KUNV 290255Z AUTO 06003KT 5SM DZ OVC010 06/05 A3001 RMK AO2 T00560052 =
2016-04-28 22:35 METAR KUNV 290235Z AUTO 00000KT 5SM DZ OVC010 06/05 A3001 RMK AO2 T00550052 =
2016-04-28 22:15 METAR KUNV 290215Z AUTO 07003KT 3SM BR SCT004 OVC010 06/05 A3001 RMK AO2
                 T00550052 =
2016-04-28 21:55 METAR KUNV 290155Z AUTO 00000KT 2 1/2SM -RA BKN006 OVC012 06/05 A3001 RMK AO2
                 T00550052 =
2016-04-28 20:53 METAR KUNV 290053Z 00000KT 3SM DZ OVC011 06/05 A3000 =
2016-04-28 19:53 METAR KUNV 282353Z 02004KT 3SM RA BKN005 OVC011 05/05 A3000 =
2016-04-28 18:53 METAR KUNV 282253Z 05005KT 3SM RA BKN007 OVC014 06/05 A2999 =
2016-04-28 17:53 METAR KUNV 282153Z COR 05005KT 3SM RA BKN006 OVC012 05/05 A3000 =
2016-04-28 16:53 METAR KUNV 282053Z 06005KT 4SM RA BKN008 OVC012 05/04 A2999 =
2016-04-28 15:53 METAR KUNV 281953Z 04007KT 4SM -RA BKN016 BKN026 OVC031 05/04 A3000 =
2016-04-28 14:53 METAR KUNV 281853Z 06007KT 6SM -RA OVC030 05/03 A3001 RMK LTG DSNT SW =
2016-04-28 13:53 METAR KUNV 281753Z 05005KT 6SM DZ OVC032 06/01 A3002 RMK LTG DSNT SW =
2016-04-28 12:53 METAR KUNV 281653Z 05005KT 6SM RA OVC032 07/M02 A3002 =
2016-04-28 11:53 METAR KUNV 281553Z 05005KT 7SM -DZ OVC039 07/M01 A3001 =
2016-04-28 10:53 METAR KUNV 281453Z 03006KT 7SM OVC037 08/M03 A3001 =

Support USWX by starting your Amazon purchase here.